sensor_id;sensor_type;location;lat;lon;timestamp;temperature;humidity
38938;DHT22;24727;51.974;20.868;2023-06-01T00:00:51;10.80;1.00
38938;DHT22;24727;51.974;20.868;2023-06-01T00:03:22;10.70;1.00
38938;DHT22;24727;51.974;20.868;2023-06-01T00:05:49;10.60;1.00
38938;DHT22;24727;51.974;20.868;2023-06-01T00:08:15;10.60;1.00
38938;DHT22;24727;51.974;20.868;2023-06-01T00:10:41;10.60;1.00
38938;DHT22;24727;51.974;20.868;2023-06-01T00:13:08;10.60;1.00
38938;DHT22;24727;51.974;20.868;2023-06-01T00:15:35;10.60;1.00
38938;DHT22;24727;51.974;20.868;2023-06-01T00:18:01;10.50;1.00
38938;DHT22;24727;51.974;20.868;2023-06-01T00:20:27;10.50;1.00
38938;DHT22;24727;51.974;20.868;2023-06-01T00:22:54;10.50;1.00
38938;DHT22;24727;51.974;20.868;2023-06-01T00:25:21;10.50;1.00
38938;DHT22;24727;51.974;20.868;2023-06-01T00:27:47;10.50;1.00
38938;DHT22;24727;51.974;20.868;2023-06-01T00:30:13;10.50;1.00
38938;DHT22;24727;51.974;20.868;2023-06-01T00:32:39;10.40;1.00
38938;DHT22;24727;51.974;20.868;2023-06-01T00:35:06;10.40;1.00
38938;DHT22;24727;51.974;20.868;2023-06-01T00:37:33;10.30;1.00
38938;DHT22;24727;51.974;20.868;2023-06-01T00:40:05;10.20;1.00
38938;DHT22;24727;51.974;20.868;2023-06-01T00:42:33;10.20;1.00
38938;DHT22;24727;51.974;20.868;2023-06-01T00:44:59;10.10;1.00
38938;DHT22;24727;51.974;20.868;2023-06-01T00:47:25;10.00;1.00
38938;DHT22;24727;51.974;20.868;2023-06-01T00:49:50;10.00;1.00
38938;DHT22;24727;51.974;20.868;2023-06-01T00:52:18;9.90;1.00
38938;DHT22;24727;51.974;20.868;2023-06-01T00:54:44;9.90;1.00
38938;DHT22;24727;51.974;20.868;2023-06-01T00:57:10;9.90;1.00
38938;DHT22;24727;51.974;20.868;2023-06-01T00:59:37;9.90;1.00
38938;DHT22;24727;51.974;20.868;2023-06-01T01:02:04;9.90;1.00
38938;DHT22;24727;51.974;20.868;2023-06-01T01:04:30;9.90;1.00
38938;DHT22;24727;51.974;20.868;2023-06-01T01:07:15;9.90;1.00
38938;DHT22;24727;51.974;20.868;2023-06-01T01:12:25;9.80;1.00
38938;DHT22;24727;51.974;20.868;2023-06-01T01:15:01;9.90;1.00
38938;DHT22;24727;51.974;20.868;2023-06-01T01:17:34;9.90;1.00
38938;DHT22;24727;51.974;20.868;2023-06-01T01:20:34;9.90;1.00
38938;DHT22;24727;51.974;20.868;2023-06-01T01:29:01;10.20;1.00
38938;DHT22;24727;51.974;20.868;2023-06-01T01:31:30;10.30;1.00
38938;DHT22;24727;51.974;20.868;2023-06-01T01:33:58;10.40;1.00
38938;DHT22;24727;51.974;20.868;2023-06-01T01:36:25;10.50;1.00
38938;DHT22;24727;51.974;20.868;2023-06-01T01:38:52;10.60;1.00
38938;DHT22;24727;51.974;20.868;2023-06-01T01:41:18;10.60;1.00
38938;DHT22;24727;51.974;20.868;2023-06-01T01:43:45;10.60;1.00
38938;DHT22;24727;51.974;20.868;2023-06-01T01:46:27;10.60;1.00
38938;DHT22;24727;51.974;20.868;2023-06-01T01:49:18;10.60;1.00
38938;DHT22;24727;51.974;20.868;2023-06-01T01:51:52;10.70;1.00
38938;DHT22;24727;51.974;20.868;2023-06-01T01:54:20;10.80;1.00
38938;DHT22;24727;51.974;20.868;2023-06-01T01:56:49;10.90;1.00
38938;DHT22;24727;51.974;20.868;2023-06-01T01:59:17;11.00;1.00
38938;DHT22;24727;51.974;20.868;2023-06-01T02:01:43;11.10;1.00
38938;DHT22;24727;51.974;20.868;2023-06-01T02:04:11;11.10;1.00
38938;DHT22;24727;51.974;20.868;2023-06-01T02:06:38;11.20;1.00
38938;DHT22;24727;51.974;20.868;2023-06-01T02:09:05;11.20;1.00
38938;DHT22;24727;51.974;20.868;2023-06-01T02:11:33;11.30;1.00
38938;DHT22;24727;51.974;20.868;2023-06-01T02:13:59;11.30;1.00
38938;DHT22;24727;51.974;20.868;2023-06-01T02:16:26;11.40;1.00
38938;DHT22;24727;51.974;20.868;2023-06-01T02:18:52;11.30;1.00
38938;DHT22;24727;51.974;20.868;2023-06-01T02:21:18;11.40;1.00
38938;DHT22;24727;51.974;20.868;2023-06-01T02:23:44;11.40;1.00
38938;DHT22;24727;51.974;20.868;2023-06-01T02:26:12;11.40;1.00
38938;DHT22;24727;51.974;20.868;2023-06-01T02:28:38;11.40;1.00
38938;DHT22;24727;51.974;20.868;2023-06-01T02:31:06;11.40;1.00
38938;DHT22;24727;51.974;20.868;2023-06-01T02:33:32;11.40;1.00
38938;DHT22;24727;51.974;20.868;2023-06-01T02:36:00;11.50;1.00
38938;DHT22;24727;51.974;20.868;2023-06-01T02:38:27;11.40;1.00
38938;DHT22;24727;51.974;20.868;2023-06-01T02:40:53;11.30;1.00
38938;DHT22;24727;51.974;20.868;2023-06-01T02:43:19;11.30;1.00
38938;DHT22;24727;51.974;20.868;2023-06-01T02:45:45;11.40;1.00
38938;DHT22;24727;51.974;20.868;2023-06-01T02:48:11;11.50;1.00
38938;DHT22;24727;51.974;20.868;2023-06-01T02:50:38;11.50;1.00
38938;DHT22;24727;51.974;20.868;2023-06-01T02:53:04;11.60;1.00
38938;DHT22;24727;51.974;20.868;2023-06-01T02:55:32;11.60;1.00
38938;DHT22;24727;51.974;20.868;2023-06-01T02:57:58;11.60;1.00
38938;DHT22;24727;51.974;20.868;2023-06-01T03:00:25;11.70;1.00
38938;DHT22;24727;51.974;20.868;2023-06-01T03:02:53;11.70;1.00
38938;DHT22;24727;51.974;20.868;2023-06-01T03:05:26;11.80;1.00
38938;DHT22;24727;51.974;20.868;2023-06-01T03:07:56;11.90;1.00
38938;DHT22;24727;51.974;20.868;2023-06-01T03:10:23;11.90;1.00
38938;DHT22;24727;51.974;20.868;2023-06-01T03:12:49;12.00;1.00
38938;DHT22;24727;51.974;20.868;2023-06-01T03:15:16;12.20;1.00
38938;DHT22;24727;51.974;20.868;2023-06-01T03:17:44;12.30;1.00
38938;DHT22;24727;51.974;20.868;2023-06-01T03:20:11;12.30;1.00
38938;DHT22;24727;51.974;20.868;2023-06-01T03:22:42;12.40;1.00
38938;DHT22;24727;51.974;20.868;2023-06-01T03:25:10;12.40;1.00
38938;DHT22;24727;51.974;20.868;2023-06-01T03:27:41;12.50;1.00
38938;DHT22;24727;51.974;20.868;2023-06-01T03:30:08;12.50;1.00
38938;DHT22;24727;51.974;20.868;2023-06-01T03:32:39;12.60;1.00
38938;DHT22;24727;51.974;20.868;2023-06-01T03:35:07;12.80;1.00
38938;DHT22;24727;51.974;20.868;2023-06-01T03:37:38;12.80;1.00
38938;DHT22;24727;51.974;20.868;2023-06-01T03:40:05;12.90;1.00
38938;DHT22;24727;51.974;20.868;2023-06-01T03:42:47;13.00;1.00
38938;DHT22;24727;51.974;20.868;2023-06-01T03:45:15;13.00;1.00
38938;DHT22;24727;51.974;20.868;2023-06-01T03:47:42;13.20;1.00
38938;DHT22;24727;51.974;20.868;2023-06-01T03:50:09;13.30;1.00
38938;DHT22;24727;51.974;20.868;2023-06-01T03:52:36;13.40;1.00
38938;DHT22;24727;51.974;20.868;2023-06-01T03:55:04;13.50;1.00
38938;DHT22;24727;51.974;20.868;2023-06-01T03:57:36;13.60;1.00
38938;DHT22;24727;51.974;20.868;2023-06-01T04:00:07;13.70;1.00
38938;DHT22;24727;51.974;20.868;2023-06-01T04:02:55;13.80;1.00
38938;DHT22;24727;51.974;20.868;2023-06-01T04:05:24;13.90;1.00
38938;DHT22;24727;51.974;20.868;2023-06-01T04:07:51;14.00;1.00
38938;DHT22;24727;51.974;20.868;2023-06-01T04:10:18;14.00;1.00
38938;DHT22;24727;51.974;20.868;2023-06-01T04:12:46;14.10;1.00
38938;DHT22;24727;51.974;20.868;2023-06-01T04:15:15;14.20;1.00
38938;DHT22;24727;51.974;20.868;2023-06-01T04:17:43;14.30;1.00
38938;DHT22;24727;51.974;20.868;2023-06-01T04:20:15;14.40;1.00
38938;DHT22;24727;51.974;20.868;2023-06-01T04:22:44;14.60;1.00
38938;DHT22;24727;51.974;20.868;2023-06-01T04:25:13;14.60;1.00
38938;DHT22;24727;51.974;20.868;2023-06-01T04:27:45;14.70;1.00
38938;DHT22;24727;51.974;20.868;2023-06-01T04:30:12;14.80;1.00
38938;DHT22;24727;51.974;20.868;2023-06-01T04:32:39;14.90;1.00
38938;DHT22;24727;51.974;20.868;2023-06-01T04:35:07;15.00;1.00
38938;DHT22;24727;51.974;20.868;2023-06-01T04:37:40;15.20;1.00
38938;DHT22;24727;51.974;20.868;2023-06-01T04:40:08;15.30;1.00
38938;DHT22;24727;51.974;20.868;2023-06-01T04:42:36;15.40;1.00
38938;DHT22;24727;51.974;20.868;2023-06-01T04:45:05;15.50;1.00
38938;DHT22;24727;51.974;20.868;2023-06-01T04:47:34;15.60;1.00
38938;DHT22;24727;51.974;20.868;2023-06-01T04:50:06;15.70;1.00
38938;DHT22;24727;51.974;20.868;2023-06-01T04:52:39;15.80;1.00
38938;DHT22;24727;51.974;20.868;2023-06-01T04:55:07;16.00;1.00
38938;DHT22;24727;51.974;20.868;2023-06-01T04:57:36;16.20;1.00
38938;DHT22;24727;51.974;20.868;2023-06-01T05:00:06;16.40;1.00
38938;DHT22;24727;51.974;20.868;2023-06-01T05:02:38;16.50;1.00
38938;DHT22;24727;51.974;20.868;2023-06-01T05:05:05;16.60;1.00
38938;DHT22;24727;51.974;20.868;2023-06-01T05:07:32;16.90;1.00
38938;DHT22;24727;51.974;20.868;2023-06-01T05:09:58;16.90;1.00
38938;DHT22;24727;51.974;20.868;2023-06-01T05:12:30;17.10;1.00
38938;DHT22;24727;51.974;20.868;2023-06-01T05:14:56;17.20;1.00
38938;DHT22;24727;51.974;20.868;2023-06-01T05:17:23;17.30;1.00
38938;DHT22;24727;51.974;20.868;2023-06-01T05:19:49;17.40;1.00
38938;DHT22;24727;51.974;20.868;2023-06-01T05:22:15;17.50;1.00
38938;DHT22;24727;51.974;20.868;2023-06-01T05:24:41;17.60;1.00
38938;DHT22;24727;51.974;20.868;2023-06-01T05:27:08;17.70;1.00
38938;DHT22;24727;51.974;20.868;2023-06-01T05:29:34;17.90;1.00
38938;DHT22;24727;51.974;20.868;2023-06-01T05:32:00;18.00;1.00
38938;DHT22;24727;51.974;20.868;2023-06-01T05:34:26;18.20;1.00
38938;DHT22;24727;51.974;20.868;2023-06-01T05:36:52;18.20;1.00
38938;DHT22;24727;51.974;20.868;2023-06-01T05:39:18;18.30;1.00
38938;DHT22;24727;51.974;20.868;2023-06-01T05:41:46;18.40;1.00
38938;DHT22;24727;51.974;20.868;2023-06-01T05:44:13;18.50;1.00
38938;DHT22;24727;51.974;20.868;2023-06-01T05:46:39;18.60;1.00
38938;DHT22;24727;51.974;20.868;2023-06-01T05:49:05;18.70;1.00
38938;DHT22;24727;51.974;20.868;2023-06-01T05:51:31;18.90;1.00
38938;DHT22;24727;51.974;20.868;2023-06-01T05:54:02;19.10;1.00
38938;DHT22;24727;51.974;20.868;2023-06-01T05:56:31;19.30;1.00
38938;DHT22;24727;51.974;20.868;2023-06-01T05:58:58;19.50;1.00
38938;DHT22;24727;51.974;20.868;2023-06-01T06:01:25;19.60;1.00
38938;DHT22;24727;51.974;20.868;2023-06-01T06:03:54;19.80;1.00
38938;DHT22;24727;51.974;20.868;2023-06-01T06:06:22;19.90;1.00
38938;DHT22;24727;51.974;20.868;2023-06-01T06:08:49;19.80;1.00
38938;DHT22;24727;51.974;20.868;2023-06-01T06:11:17;19.80;1.00
38938;DHT22;24727;51.974;20.868;2023-06-01T06:13:43;19.90;1.00
38938;DHT22;24727;51.974;20.868;2023-06-01T06:16:09;20.10;1.00
38938;DHT22;24727;51.974;20.868;2023-06-01T06:18:35;20.10;1.00
38938;DHT22;24727;51.974;20.868;2023-06-01T06:21:02;20.20;1.00
38938;DHT22;24727;51.974;20.868;2023-06-01T06:23:29;20.20;1.00
38938;DHT22;24727;51.974;20.868;2023-06-01T06:25:56;20.10;1.00
38938;DHT22;24727;51.974;20.868;2023-06-01T06:28:22;20.20;1.00
38938;DHT22;24727;51.974;20.868;2023-06-01T06:30:49;20.20;1.00
38938;DHT22;24727;51.974;20.868;2023-06-01T06:33:15;20.30;1.00
38938;DHT22;24727;51.974;20.868;2023-06-01T06:35:42;20.50;1.00
38938;DHT22;24727;51.974;20.868;2023-06-01T06:38:08;20.70;1.00
38938;DHT22;24727;51.974;20.868;2023-06-01T06:40:34;20.70;1.00
38938;DHT22;24727;51.974;20.868;2023-06-01T06:43:00;20.90;1.00
38938;DHT22;24727;51.974;20.868;2023-06-01T06:45:28;21.10;1.00
38938;DHT22;24727;51.974;20.868;2023-06-01T06:47:54;21.20;1.00
38938;DHT22;24727;51.974;20.868;2023-06-01T06:50:21;21.30;1.00
38938;DHT22;24727;51.974;20.868;2023-06-01T06:52:46;21.30;1.00
38938;DHT22;24727;51.974;20.868;2023-06-01T06:55:12;21.30;1.00
38938;DHT22;24727;51.974;20.868;2023-06-01T06:57:38;21.50;1.00
38938;DHT22;24727;51.974;20.868;2023-06-01T07:00:07;21.50;1.00
38938;DHT22;24727;51.974;20.868;2023-06-01T07:02:34;21.50;1.00
38938;DHT22;24727;51.974;20.868;2023-06-01T07:05:01;21.60;1.00
38938;DHT22;24727;51.974;20.868;2023-06-01T07:07:29;21.60;1.00
38938;DHT22;24727;51.974;20.868;2023-06-01T07:09:55;21.70;1.00
38938;DHT22;24727;51.974;20.868;2023-06-01T07:12:21;21.80;1.00
38938;DHT22;24727;51.974;20.868;2023-06-01T07:14:48;21.70;1.00
38938;DHT22;24727;51.974;20.868;2023-06-01T07:17:15;21.90;1.00
38938;DHT22;24727;51.974;20.868;2023-06-01T07:19:42;22.20;1.00
38938;DHT22;24727;51.974;20.868;2023-06-01T07:22:08;22.10;1.00
38938;DHT22;24727;51.974;20.868;2023-06-01T07:24:34;22.10;1.00
38938;DHT22;24727;51.974;20.868;2023-06-01T07:27:01;21.90;1.00
38938;DHT22;24727;51.974;20.868;2023-06-01T07:29:28;22.00;1.00
38938;DHT22;24727;51.974;20.868;2023-06-01T07:31:55;22.10;1.00
38938;DHT22;24727;51.974;20.868;2023-06-01T07:34:21;22.20;1.00
38938;DHT22;24727;51.974;20.868;2023-06-01T07:36:48;22.40;1.00
38938;DHT22;24727;51.974;20.868;2023-06-01T07:39:14;22.30;1.00
38938;DHT22;24727;51.974;20.868;2023-06-01T07:41:41;22.20;1.00
38938;DHT22;24727;51.974;20.868;2023-06-01T07:44:08;22.20;1.00
38938;DHT22;24727;51.974;20.868;2023-06-01T07:46:34;22.10;1.00
38938;DHT22;24727;51.974;20.868;2023-06-01T07:49:00;22.00;1.00
38938;DHT22;24727;51.974;20.868;2023-06-01T07:51:26;21.90;1.00
38938;DHT22;24727;51.974;20.868;2023-06-01T07:53:53;22.00;1.00
38938;DHT22;24727;51.974;20.868;2023-06-01T07:56:24;22.20;1.00
38938;DHT22;24727;51.974;20.868;2023-06-01T07:58:53;22.10;1.00
38938;DHT22;24727;51.974;20.868;2023-06-01T08:01:28;22.10;1.00
38938;DHT22;24727;51.974;20.868;2023-06-01T08:03:54;22.10;1.00
38938;DHT22;24727;51.974;20.868;2023-06-01T08:06:22;22.10;1.00
38938;DHT22;24727;51.974;20.868;2023-06-01T08:08:48;22.10;1.00
38938;DHT22;24727;51.974;20.868;2023-06-01T08:11:15;22.10;1.00
38938;DHT22;24727;51.974;20.868;2023-06-01T08:13:42;22.20;1.00
38938;DHT22;24727;51.974;20.868;2023-06-01T08:16:12;22.30;1.00
38938;DHT22;24727;51.974;20.868;2023-06-01T08:18:41;22.40;1.00
38938;DHT22;24727;51.974;20.868;2023-06-01T08:21:07;22.40;1.00
38938;DHT22;24727;51.974;20.868;2023-06-01T08:23:38;22.30;1.00
38938;DHT22;24727;51.974;20.868;2023-06-01T08:26:04;22.40;1.00
38938;DHT22;24727;51.974;20.868;2023-06-01T08:28:32;22.70;1.00
38938;DHT22;24727;51.974;20.868;2023-06-01T08:30:59;22.90;1.00
38938;DHT22;24727;51.974;20.868;2023-06-01T08:33:25;23.20;1.00
38938;DHT22;24727;51.974;20.868;2023-06-01T08:35:51;23.00;1.00
38938;DHT22;24727;51.974;20.868;2023-06-01T08:38:17;23.00;1.00
38938;DHT22;24727;51.974;20.868;2023-06-01T08:40:43;23.10;1.00
38938;DHT22;24727;51.974;20.868;2023-06-01T08:45:44;23.00;1.00
38938;DHT22;24727;51.974;20.868;2023-06-01T08:48:18;23.00;1.00
38938;DHT22;24727;51.974;20.868;2023-06-01T08:50:48;23.20;1.00
38938;DHT22;24727;51.974;20.868;2023-06-01T08:53:21;23.20;1.00
38938;DHT22;24727;51.974;20.868;2023-06-01T08:55:55;23.00;1.00
38938;DHT22;24727;51.974;20.868;2023-06-01T08:58:22;23.20;1.00
38938;DHT22;24727;51.974;20.868;2023-06-01T09:00:59;23.50;1.00
38938;DHT22;24727;51.974;20.868;2023-06-01T09:03:26;23.40;1.00
38938;DHT22;24727;51.974;20.868;2023-06-01T09:05:52;23.70;1.00
38938;DHT22;24727;51.974;20.868;2023-06-01T09:08:18;24.00;1.00
38938;DHT22;24727;51.974;20.868;2023-06-01T09:10:44;23.70;1.00
38938;DHT22;24727;51.974;20.868;2023-06-01T09:13:10;23.30;1.00
38938;DHT22;24727;51.974;20.868;2023-06-01T09:15:50;23.20;1.00
38938;DHT22;24727;51.974;20.868;2023-06-01T09:18:19;23.30;1.00
38938;DHT22;24727;51.974;20.868;2023-06-01T09:20:48;23.30;1.00
38938;DHT22;24727;51.974;20.868;2023-06-01T09:23:27;23.20;1.00
38938;DHT22;24727;51.974;20.868;2023-06-01T09:26:09;23.30;1.00
38938;DHT22;24727;51.974;20.868;2023-06-01T09:28:55;23.60;1.00
38938;DHT22;24727;51.974;20.868;2023-06-01T09:31:46;23.40;1.00
38938;DHT22;24727;51.974;20.868;2023-06-01T09:34:18;23.70;1.00
38938;DHT22;24727;51.974;20.868;2023-06-01T09:36:47;24.00;1.00
38938;DHT22;24727;51.974;20.868;2023-06-01T09:39:15;23.90;1.00
38938;DHT22;24727;51.974;20.868;2023-06-01T09:41:55;23.50;1.00
38938;DHT22;24727;51.974;20.868;2023-06-01T09:44:42;23.30;1.00
38938;DHT22;24727;51.974;20.868;2023-06-01T09:47:11;23.50;1.00
38938;DHT22;24727;51.974;20.868;2023-06-01T09:49:43;23.70;1.00
38938;DHT22;24727;51.974;20.868;2023-06-01T09:52:14;23.60;1.00
38938;DHT22;24727;51.974;20.868;2023-06-01T09:54:47;23.60;1.00
38938;DHT22;24727;51.974;20.868;2023-06-01T09:57:25;23.60;1.00
38938;DHT22;24727;51.974;20.868;2023-06-01T09:59:52;23.70;1.00
38938;DHT22;24727;51.974;20.868;2023-06-01T10:02:19;23.70;1.00
38938;DHT22;24727;51.974;20.868;2023-06-01T10:04:54;23.70;1.00
38938;DHT22;24727;51.974;20.868;2023-06-01T10:07:25;23.60;1.00
38938;DHT22;24727;51.974;20.868;2023-06-01T10:09:57;23.60;1.00
38938;DHT22;24727;51.974;20.868;2023-06-01T10:12:27;23.50;1.00
38938;DHT22;24727;51.974;20.868;2023-06-01T10:15:00;23.90;1.00
38938;DHT22;24727;51.974;20.868;2023-06-01T10:17:27;23.60;1.00
38938;DHT22;24727;51.974;20.868;2023-06-01T10:19:53;23.70;1.00
38938;DHT22;24727;51.974;20.868;2023-06-01T10:22:22;23.90;1.00
38938;DHT22;24727;51.974;20.868;2023-06-01T10:24:49;24.40;1.00
38938;DHT22;24727;51.974;20.868;2023-06-01T10:27:19;25.00;1.00
38938;DHT22;24727;51.974;20.868;2023-06-01T10:29:47;25.20;1.00
38938;DHT22;24727;51.974;20.868;2023-06-01T10:32:45;25.20;1.00
38938;DHT22;24727;51.974;20.868;2023-06-01T10:40:42;24.20;1.00
38938;DHT22;24727;51.974;20.868;2023-06-01T10:48:57;24.20;1.00
38938;DHT22;24727;51.974;20.868;2023-06-01T10:51:23;24.40;1.00
38938;DHT22;24727;51.974;20.868;2023-06-01T10:53:51;24.60;1.00
38938;DHT22;24727;51.974;20.868;2023-06-01T10:56:25;24.90;1.00
38938;DHT22;24727;51.974;20.868;2023-06-01T10:59:13;24.30;1.00
38938;DHT22;24727;51.974;20.868;2023-06-01T11:01:44;24.00;1.00
38938;DHT22;24727;51.974;20.868;2023-06-01T11:04:11;24.00;1.00
38938;DHT22;24727;51.974;20.868;2023-06-01T11:06:41;24.00;1.00
38938;DHT22;24727;51.974;20.868;2023-06-01T11:09:09;23.90;1.00
38938;DHT22;24727;51.974;20.868;2023-06-01T11:14:18;24.30;1.00
38938;DHT22;24727;51.974;20.868;2023-06-01T11:16:47;25.10;1.00
38938;DHT22;24727;51.974;20.868;2023-06-01T11:19:20;25.70;1.00
38938;DHT22;24727;51.974;20.868;2023-06-01T11:21:56;25.20;1.00
38938;DHT22;24727;51.974;20.868;2023-06-01T11:24:37;24.20;1.00
38938;DHT22;24727;51.974;20.868;2023-06-01T11:27:09;24.20;1.00
38938;DHT22;24727;51.974;20.868;2023-06-01T11:29:36;24.40;1.00
38938;DHT22;24727;51.974;20.868;2023-06-01T11:32:04;24.60;1.00
38938;DHT22;24727;51.974;20.868;2023-06-01T11:34:35;24.80;1.00
38938;DHT22;24727;51.974;20.868;2023-06-01T11:37:17;24.60;1.00
38938;DHT22;24727;51.974;20.868;2023-06-01T11:39:45;24.60;1.00
38938;DHT22;24727;51.974;20.868;2023-06-01T11:42:14;24.30;1.00
38938;DHT22;24727;51.974;20.868;2023-06-01T11:44:42;24.70;1.00
38938;DHT22;24727;51.974;20.868;2023-06-01T11:47:11;25.50;1.00
38938;DHT22;24727;51.974;20.868;2023-06-01T11:52:13;25.50;1.00
38938;DHT22;24727;51.974;20.868;2023-06-01T11:54:39;25.20;1.00
38938;DHT22;24727;51.974;20.868;2023-06-01T11:57:06;25.20;1.00
38938;DHT22;24727;51.974;20.868;2023-06-01T11:59:41;24.90;1.00
38938;DHT22;24727;51.974;20.868;2023-06-01T12:02:21;24.80;1.00
38938;DHT22;24727;51.974;20.868;2023-06-01T12:04:57;24.60;1.00
38938;DHT22;24727;51.974;20.868;2023-06-01T12:07:26;24.90;1.00
38938;DHT22;24727;51.974;20.868;2023-06-01T12:09:52;24.70;1.00
38938;DHT22;24727;51.974;20.868;2023-06-01T12:12:23;24.50;1.00
38938;DHT22;24727;51.974;20.868;2023-06-01T12:14:50;24.50;1.00
38938;DHT22;24727;51.974;20.868;2023-06-01T12:17:17;24.70;1.00
38938;DHT22;24727;51.974;20.868;2023-06-01T12:19:50;24.90;1.00
38938;DHT22;24727;51.974;20.868;2023-06-01T12:22:16;25.70;1.00
38938;DHT22;24727;51.974;20.868;2023-06-01T12:24:44;26.20;1.00
38938;DHT22;24727;51.974;20.868;2023-06-01T12:27:17;26.20;1.00
38938;DHT22;24727;51.974;20.868;2023-06-01T12:29:47;25.70;1.00
38938;DHT22;24727;51.974;20.868;2023-06-01T12:32:16;25.20;1.00
38938;DHT22;24727;51.974;20.868;2023-06-01T12:34:44;25.50;1.00
38938;DHT22;24727;51.974;20.868;2023-06-01T12:37:16;25.70;1.00
38938;DHT22;24727;51.974;20.868;2023-06-01T12:39:54;25.90;1.00
38938;DHT22;24727;51.974;20.868;2023-06-01T12:42:38;26.30;1.00
38938;DHT22;24727;51.974;20.868;2023-06-01T12:45:06;25.60;1.00
38938;DHT22;24727;51.974;20.868;2023-06-01T12:47:39;25.50;1.00
38938;DHT22;24727;51.974;20.868;2023-06-01T12:50:10;25.40;1.00
38938;DHT22;24727;51.974;20.868;2023-06-01T12:52:37;26.00;1.00
38938;DHT22;24727;51.974;20.868;2023-06-01T12:55:05;25.70;1.00
38938;DHT22;24727;51.974;20.868;2023-06-01T12:57:32;25.30;1.00
38938;DHT22;24727;51.974;20.868;2023-06-01T12:59:59;25.90;1.00
38938;DHT22;24727;51.974;20.868;2023-06-01T13:02:25;26.30;1.00
38938;DHT22;24727;51.974;20.868;2023-06-01T13:04:58;26.60;1.00
38938;DHT22;24727;51.974;20.868;2023-06-01T13:07:25;27.20;1.00
38938;DHT22;24727;51.974;20.868;2023-06-01T13:09:51;27.00;1.00
38938;DHT22;24727;51.974;20.868;2023-06-01T13:12:24;26.70;1.00
38938;DHT22;24727;51.974;20.868;2023-06-01T13:14:51;25.80;1.00
38938;DHT22;24727;51.974;20.868;2023-06-01T13:17:18;25.50;1.00
38938;DHT22;24727;51.974;20.868;2023-06-01T13:19:45;25.20;1.00
38938;DHT22;24727;51.974;20.868;2023-06-01T13:22:11;25.30;1.00
38938;DHT22;24727;51.974;20.868;2023-06-01T13:24:38;26.40;1.00
38938;DHT22;24727;51.974;20.868;2023-06-01T13:27:05;26.60;1.00
38938;DHT22;24727;51.974;20.868;2023-06-01T13:29:38;25.90;1.00
38938;DHT22;24727;51.974;20.868;2023-06-01T13:32:05;25.70;1.00
38938;DHT22;24727;51.974;20.868;2023-06-01T13:34:31;25.80;1.00
38938;DHT22;24727;51.974;20.868;2023-06-01T13:36:57;26.40;1.00
38938;DHT22;24727;51.974;20.868;2023-06-01T13:39:24;26.90;1.00
38938;DHT22;24727;51.974;20.868;2023-06-01T13:41:51;26.10;1.00
38938;DHT22;24727;51.974;20.868;2023-06-01T13:44:17;26.00;1.00
38938;DHT22;24727;51.974;20.868;2023-06-01T13:46:44;26.20;1.00
38938;DHT22;24727;51.974;20.868;2023-06-01T13:49:10;25.70;1.00
38938;DHT22;24727;51.974;20.868;2023-06-01T13:51:36;25.40;1.00
38938;DHT22;24727;51.974;20.868;2023-06-01T13:54:08;25.40;1.00
38938;DHT22;24727;51.974;20.868;2023-06-01T13:56:37;25.50;1.00
38938;DHT22;24727;51.974;20.868;2023-06-01T13:59:05;25.60;1.00
38938;DHT22;24727;51.974;20.868;2023-06-01T14:01:31;25.60;1.00
38938;DHT22;24727;51.974;20.868;2023-06-01T14:03:57;25.60;1.00
38938;DHT22;24727;51.974;20.868;2023-06-01T14:06:23;25.50;1.00
38938;DHT22;24727;51.974;20.868;2023-06-01T14:08:55;25.40;1.00
38938;DHT22;24727;51.974;20.868;2023-06-01T14:11:21;25.50;1.00
38938;DHT22;24727;51.974;20.868;2023-06-01T14:13:48;25.40;1.00
38938;DHT22;24727;51.974;20.868;2023-06-01T14:16:20;25.60;1.00
38938;DHT22;24727;51.974;20.868;2023-06-01T14:18:46;25.50;1.00
38938;DHT22;24727;51.974;20.868;2023-06-01T14:21:13;25.20;1.00
38938;DHT22;24727;51.974;20.868;2023-06-01T14:23:39;25.10;1.00
38938;DHT22;24727;51.974;20.868;2023-06-01T14:26:07;25.10;1.00
38938;DHT22;24727;51.974;20.868;2023-06-01T14:28:34;25.10;1.00
38938;DHT22;24727;51.974;20.868;2023-06-01T14:31:00;25.10;1.00
38938;DHT22;24727;51.974;20.868;2023-06-01T14:33:26;25.20;1.00
38938;DHT22;24727;51.974;20.868;2023-06-01T14:35:52;25.30;1.00
38938;DHT22;24727;51.974;20.868;2023-06-01T14:38:18;25.20;1.00
38938;DHT22;24727;51.974;20.868;2023-06-01T14:40:44;25.20;1.00
38938;DHT22;24727;51.974;20.868;2023-06-01T14:43:10;25.20;1.00
38938;DHT22;24727;51.974;20.868;2023-06-01T14:45:36;25.20;1.00
38938;DHT22;24727;51.974;20.868;2023-06-01T14:48:04;25.10;1.00
38938;DHT22;24727;51.974;20.868;2023-06-01T14:50:31;25.10;1.00
38938;DHT22;24727;51.974;20.868;2023-06-01T14:52:57;25.20;1.00
38938;DHT22;24727;51.974;20.868;2023-06-01T14:55:25;25.10;1.00
38938;DHT22;24727;51.974;20.868;2023-06-01T14:57:52;25.30;1.00
38938;DHT22;24727;51.974;20.868;2023-06-01T15:00:18;25.60;1.00
38938;DHT22;24727;51.974;20.868;2023-06-01T15:02:44;25.60;1.00
38938;DHT22;24727;51.974;20.868;2023-06-01T15:05:11;25.40;1.00
38938;DHT22;24727;51.974;20.868;2023-06-01T15:07:37;25.30;1.00
38938;DHT22;24727;51.974;20.868;2023-06-01T15:10:04;25.30;1.00
38938;DHT22;24727;51.974;20.868;2023-06-01T15:12:30;25.10;1.00
38938;DHT22;24727;51.974;20.868;2023-06-01T15:14:56;25.10;1.00
38938;DHT22;24727;51.974;20.868;2023-06-01T15:17:22;25.10;1.00
38938;DHT22;24727;51.974;20.868;2023-06-01T15:19:48;25.00;1.00
38938;DHT22;24727;51.974;20.868;2023-06-01T15:22:14;25.00;1.00
38938;DHT22;24727;51.974;20.868;2023-06-01T15:24:42;25.00;1.00
38938;DHT22;24727;51.974;20.868;2023-06-01T15:27:09;24.90;1.00
38938;DHT22;24727;51.974;20.868;2023-06-01T15:29:35;24.90;1.00
38938;DHT22;24727;51.974;20.868;2023-06-01T15:32:03;24.90;1.00
38938;DHT22;24727;51.974;20.868;2023-06-01T15:34:30;24.90;1.00
38938;DHT22;24727;51.974;20.868;2023-06-01T15:36:55;24.90;1.00
38938;DHT22;24727;51.974;20.868;2023-06-01T15:39:22;24.90;1.00
38938;DHT22;24727;51.974;20.868;2023-06-01T15:41:48;24.80;1.00
38938;DHT22;24727;51.974;20.868;2023-06-01T15:44:14;24.90;1.00
38938;DHT22;24727;51.974;20.868;2023-06-01T15:46:40;24.90;1.00
38938;DHT22;24727;51.974;20.868;2023-06-01T15:49:10;24.90;1.00
38938;DHT22;24727;51.974;20.868;2023-06-01T15:51:36;24.90;1.00
38938;DHT22;24727;51.974;20.868;2023-06-01T15:54:02;24.90;1.00
38938;DHT22;24727;51.974;20.868;2023-06-01T15:56:29;24.90;1.00
38938;DHT22;24727;51.974;20.868;2023-06-01T15:58:55;24.90;1.00
38938;DHT22;24727;51.974;20.868;2023-06-01T16:01:21;24.80;1.00
38938;DHT22;24727;51.974;20.868;2023-06-01T16:03:47;24.80;1.00
38938;DHT22;24727;51.974;20.868;2023-06-01T16:06:13;24.70;1.00
38938;DHT22;24727;51.974;20.868;2023-06-01T16:08:40;24.70;1.00